sensor_id;sensor_type;location;lat;lon;timestamp;temperature;humidity
7445;DHT22;3764;48.126;11.594;2023-06-24T00:01:47;18.40;99.90
7445;DHT22;3764;48.126;11.594;2023-06-24T00:04:14;18.50;99.90
7445;DHT22;3764;48.126;11.594;2023-06-24T00:06:42;18.40;99.90
7445;DHT22;3764;48.126;11.594;2023-06-24T00:09:09;18.50;99.90
7445;DHT22;3764;48.126;11.594;2023-06-24T00:11:36;18.50;99.90
7445;DHT22;3764;48.126;11.594;2023-06-24T00:14:03;18.50;99.90
7445;DHT22;3764;48.126;11.594;2023-06-24T00:16:32;18.40;99.90
7445;DHT22;3764;48.126;11.594;2023-06-24T00:19:00;18.50;99.90
7445;DHT22;3764;48.126;11.594;2023-06-24T00:21:28;18.50;99.90
7445;DHT22;3764;48.126;11.594;2023-06-24T00:23:58;18.50;99.90
7445;DHT22;3764;48.126;11.594;2023-06-24T00:26:26;18.40;99.90
7445;DHT22;3764;48.126;11.594;2023-06-24T00:28:53;18.40;99.90
7445;DHT22;3764;48.126;11.594;2023-06-24T00:31:21;18.30;99.90
7445;DHT22;3764;48.126;11.594;2023-06-24T00:33:48;18.30;99.90
7445;DHT22;3764;48.126;11.594;2023-06-24T00:36:20;18.30;99.90
7445;DHT22;3764;48.126;11.594;2023-06-24T00:38:47;18.30;99.90
7445;DHT22;3764;48.126;11.594;2023-06-24T00:41:16;18.20;99.90
7445;DHT22;3764;48.126;11.594;2023-06-24T00:43:44;18.10;99.90
7445;DHT22;3764;48.126;11.594;2023-06-24T00:46:11;18.00;99.90
7445;DHT22;3764;48.126;11.594;2023-06-24T00:48:41;18.10;99.90
7445;DHT22;3764;48.126;11.594;2023-06-24T00:51:08;18.10;99.90
7445;DHT22;3764;48.126;11.594;2023-06-24T00:53:37;18.10;99.90
7445;DHT22;3764;48.126;11.594;2023-06-24T00:56:05;18.00;99.90
7445;DHT22;3764;48.126;11.594;2023-06-24T00:58:32;18.00;99.90
7445;DHT22;3764;48.126;11.594;2023-06-24T01:01:02;17.90;99.90
7445;DHT22;3764;48.126;11.594;2023-06-24T01:03:31;17.90;99.90
7445;DHT22;3764;48.126;11.594;2023-06-24T01:05:58;17.90;99.90
7445;DHT22;3764;48.126;11.594;2023-06-24T01:08:25;17.90;99.90
7445;DHT22;3764;48.126;11.594;2023-06-24T01:10:55;17.90;99.90
7445;DHT22;3764;48.126;11.594;2023-06-24T01:13:22;17.90;99.90
7445;DHT22;3764;48.126;11.594;2023-06-24T01:15:49;17.90;99.90
7445;DHT22;3764;48.126;11.594;2023-06-24T01:18:22;17.90;99.90
7445;DHT22;3764;48.126;11.594;2023-06-24T01:20:56;17.80;99.90
7445;DHT22;3764;48.126;11.594;2023-06-24T01:24:01;17.80;99.90
7445;DHT22;3764;48.126;11.594;2023-06-24T01:27:10;17.80;99.90
7445;DHT22;3764;48.126;11.594;2023-06-24T01:30:10;17.70;99.90
7445;DHT22;3764;48.126;11.594;2023-06-24T01:32:46;17.70;99.90
7445;DHT22;3764;48.126;11.594;2023-06-24T01:35:18;17.70;99.90
7445;DHT22;3764;48.126;11.594;2023-06-24T01:37:50;17.70;99.90
7445;DHT22;3764;48.126;11.594;2023-06-24T01:40:22;17.70;99.90
7445;DHT22;3764;48.126;11.594;2023-06-24T01:42:52;17.70;99.90
7445;DHT22;3764;48.126;11.594;2023-06-24T01:45:23;17.60;99.90
7445;DHT22;3764;48.126;11.594;2023-06-24T01:47:57;17.60;99.90
7445;DHT22;3764;48.126;11.594;2023-06-24T01:50:26;17.60;99.90
7445;DHT22;3764;48.126;11.594;2023-06-24T01:52:55;17.50;99.90
7445;DHT22;3764;48.126;11.594;2023-06-24T01:55:23;17.50;99.90
7445;DHT22;3764;48.126;11.594;2023-06-24T01:57:52;17.50;99.90
7445;DHT22;3764;48.126;11.594;2023-06-24T02:00:21;17.40;99.90
7445;DHT22;3764;48.126;11.594;2023-06-24T02:02:50;17.40;99.90
7445;DHT22;3764;48.126;11.594;2023-06-24T02:05:21;17.40;99.90
7445;DHT22;3764;48.126;11.594;2023-06-24T02:07:49;17.50;99.90
7445;DHT22;3764;48.126;11.594;2023-06-24T02:10:19;17.40;99.90
7445;DHT22;3764;48.126;11.594;2023-06-24T02:12:48;17.40;99.90
7445;DHT22;3764;48.126;11.594;2023-06-24T02:15:17;17.40;99.90
7445;DHT22;3764;48.126;11.594;2023-06-24T02:17:46;17.40;99.90
7445;DHT22;3764;48.126;11.594;2023-06-24T02:20:14;17.40;99.90
7445;DHT22;3764;48.126;11.594;2023-06-24T02:22:44;17.30;99.90
7445;DHT22;3764;48.126;11.594;2023-06-24T02:25:12;17.30;99.90
7445;DHT22;3764;48.126;11.594;2023-06-24T02:27:40;17.30;99.90
7445;DHT22;3764;48.126;11.594;2023-06-24T02:30:08;17.30;99.90
7445;DHT22;3764;48.126;11.594;2023-06-24T02:32:36;17.20;99.90
7445;DHT22;3764;48.126;11.594;2023-06-24T02:35:05;17.20;99.90
7445;DHT22;3764;48.126;11.594;2023-06-24T02:37:33;17.20;99.90
7445;DHT22;3764;48.126;11.594;2023-06-24T02:40:02;17.20;99.90
7445;DHT22;3764;48.126;11.594;2023-06-24T02:42:30;17.20;99.90
7445;DHT22;3764;48.126;11.594;2023-06-24T02:44:58;17.10;99.90
7445;DHT22;3764;48.126;11.594;2023-06-24T02:47:26;17.10;99.90
7445;DHT22;3764;48.126;11.594;2023-06-24T02:49:54;17.00;99.90
7445;DHT22;3764;48.126;11.594;2023-06-24T02:52:23;17.00;99.90
7445;DHT22;3764;48.126;11.594;2023-06-24T02:54:55;17.00;99.90
7445;DHT22;3764;48.126;11.594;2023-06-24T02:57:24;17.00;99.90
7445;DHT22;3764;48.126;11.594;2023-06-24T02:59:52;16.90;99.90
7445;DHT22;3764;48.126;11.594;2023-06-24T03:02:19;16.90;99.90
7445;DHT22;3764;48.126;11.594;2023-06-24T03:04:47;16.90;99.90
7445;DHT22;3764;48.126;11.594;2023-06-24T03:07:15;16.90;99.90
7445;DHT22;3764;48.126;11.594;2023-06-24T03:09:46;16.90;99.90
7445;DHT22;3764;48.126;11.594;2023-06-24T03:12:13;16.90;99.90
7445;DHT22;3764;48.126;11.594;2023-06-24T03:14:41;16.90;99.90
7445;DHT22;3764;48.126;11.594;2023-06-24T03:17:09;16.90;99.90
7445;DHT22;3764;48.126;11.594;2023-06-24T03:19:36;16.90;99.90
7445;DHT22;3764;48.126;11.594;2023-06-24T03:22:04;16.90;99.90
7445;DHT22;3764;48.126;11.594;2023-06-24T03:24:31;16.90;99.90
7445;DHT22;3764;48.126;11.594;2023-06-24T03:26:58;16.90;99.90
7445;DHT22;3764;48.126;11.594;2023-06-24T03:29:25;17.00;99.90
7445;DHT22;3764;48.126;11.594;2023-06-24T03:31:53;17.00;99.90
7445;DHT22;3764;48.126;11.594;2023-06-24T03:34:21;16.90;99.90
7445;DHT22;3764;48.126;11.594;2023-06-24T03:36:48;16.90;99.90
7445;DHT22;3764;48.126;11.594;2023-06-24T03:39:15;16.90;99.90
7445;DHT22;3764;48.126;11.594;2023-06-24T03:41:42;17.00;99.90
7445;DHT22;3764;48.126;11.594;2023-06-24T03:44:09;17.00;99.90
7445;DHT22;3764;48.126;11.594;2023-06-24T03:46:36;17.00;99.90
7445;DHT22;3764;48.126;11.594;2023-06-24T03:49:05;17.00;99.90
7445;DHT22;3764;48.126;11.594;2023-06-24T03:51:32;17.00;99.90
7445;DHT22;3764;48.126;11.594;2023-06-24T03:53:59;17.10;99.90
7445;DHT22;3764;48.126;11.594;2023-06-24T03:56:26;17.10;99.90
7445;DHT22;3764;48.126;11.594;2023-06-24T03:58:53;17.10;99.90
7445;DHT22;3764;48.126;11.594;2023-06-24T04:01:20;17.20;99.90
7445;DHT22;3764;48.126;11.594;2023-06-24T04:03:47;17.20;99.90
7445;DHT22;3764;48.126;11.594;2023-06-24T04:06:16;17.20;99.90
7445;DHT22;3764;48.126;11.594;2023-06-24T04:08:43;17.20;99.90
7445;DHT22;3764;48.126;11.594;2023-06-24T04:11:10;17.10;99.90
7445;DHT22;3764;48.126;11.594;2023-06-24T04:13:37;17.10;99.90
7445;DHT22;3764;48.126;11.594;2023-06-24T04:16:04;17.10;99.90
7445;DHT22;3764;48.126;11.594;2023-06-24T04:18:31;17.10;99.90
7445;DHT22;3764;48.126;11.594;2023-06-24T04:20:59;17.10;99.90
7445;DHT22;3764;48.126;11.594;2023-06-24T04:23:27;17.10;99.90
7445;DHT22;3764;48.126;11.594;2023-06-24T04:25:54;17.10;99.90
7445;DHT22;3764;48.126;11.594;2023-06-24T04:28:21;17.00;99.90
7445;DHT22;3764;48.126;11.594;2023-06-24T04:30:48;17.00;99.90
7445;DHT22;3764;48.126;11.594;2023-06-24T04:33:15;17.00;99.90
7445;DHT22;3764;48.126;11.594;2023-06-24T04:35:42;17.00;99.90
7445;DHT22;3764;48.126;11.594;2023-06-24T04:38:10;17.00;99.90
7445;DHT22;3764;48.126;11.594;2023-06-24T04:40:38;17.00;99.90
7445;DHT22;3764;48.126;11.594;2023-06-24T04:43:05;17.00;99.90
7445;DHT22;3764;48.126;11.594;2023-06-24T04:45:32;17.00;99.90
7445;DHT22;3764;48.126;11.594;2023-06-24T04:48:00;17.00;99.90
7445;DHT22;3764;48.126;11.594;2023-06-24T04:50:27;17.00;99.90
7445;DHT22;3764;48.126;11.594;2023-06-24T04:52:54;17.00;99.90
7445;DHT22;3764;48.126;11.594;2023-06-24T04:55:22;17.00;99.90
7445;DHT22;3764;48.126;11.594;2023-06-24T04:57:51;17.00;99.90
7445;DHT22;3764;48.126;11.594;2023-06-24T05:00:18;17.00;99.90
7445;DHT22;3764;48.126;11.594;2023-06-24T05:02:48;17.00;99.90
7445;DHT22;3764;48.126;11.594;2023-06-24T05:05:15;17.00;99.90
7445;DHT22;3764;48.126;11.594;2023-06-24T05:07:42;17.00;99.90
7445;DHT22;3764;48.126;11.594;2023-06-24T05:10:09;17.10;99.90
7445;DHT22;3764;48.126;11.594;2023-06-24T05:12:36;17.10;99.90
7445;DHT22;3764;48.126;11.594;2023-06-24T05:15:06;17.10;99.90
7445;DHT22;3764;48.126;11.594;2023-06-24T05:17:33;17.20;99.90
7445;DHT22;3764;48.126;11.594;2023-06-24T05:20:00;17.20;99.90
7445;DHT22;3764;48.126;11.594;2023-06-24T05:22:28;17.20;99.90
7445;DHT22;3764;48.126;11.594;2023-06-24T05:24:55;17.20;99.90
7445;DHT22;3764;48.126;11.594;2023-06-24T05:27:22;17.20;99.90
7445;DHT22;3764;48.126;11.594;2023-06-24T05:29:49;17.20;99.90
7445;DHT22;3764;48.126;11.594;2023-06-24T05:32:18;17.30;99.90
7445;DHT22;3764;48.126;11.594;2023-06-24T05:34:46;17.30;99.90
7445;DHT22;3764;48.126;11.594;2023-06-24T05:37:13;17.30;99.90
7445;DHT22;3764;48.126;11.594;2023-06-24T05:39:40;17.30;99.90
7445;DHT22;3764;48.126;11.594;2023-06-24T05:42:07;17.30;99.90
7445;DHT22;3764;48.126;11.594;2023-06-24T05:44:34;17.30;99.90
7445;DHT22;3764;48.126;11.594;2023-06-24T05:47:01;17.40;99.90
7445;DHT22;3764;48.126;11.594;2023-06-24T05:49:30;17.40;99.90
7445;DHT22;3764;48.126;11.594;2023-06-24T05:51:58;17.40;99.90
7445;DHT22;3764;48.126;11.594;2023-06-24T05:54:25;17.50;99.90
7445;DHT22;3764;48.126;11.594;2023-06-24T05:56:52;17.50;99.90
7445;DHT22;3764;48.126;11.594;2023-06-24T05:59:19;17.60;99.90
7445;DHT22;3764;48.126;11.594;2023-06-24T06:01:46;17.70;99.90
7445;DHT22;3764;48.126;11.594;2023-06-24T06:04:13;17.70;99.90
7445;DHT22;3764;48.126;11.594;2023-06-24T06:06:42;17.70;99.90
7445;DHT22;3764;48.126;11.594;2023-06-24T06:09:09;17.80;99.90
7445;DHT22;3764;48.126;11.594;2023-06-24T06:11:36;17.80;99.90
7445;DHT22;3764;48.126;11.594;2023-06-24T06:14:03;17.80;99.90
7445;DHT22;3764;48.126;11.594;2023-06-24T06:16:31;17.90;99.90
7445;DHT22;3764;48.126;11.594;2023-06-24T06:18:58;17.90;99.90
7445;DHT22;3764;48.126;11.594;2023-06-24T06:21:25;17.90;99.90
7445;DHT22;3764;48.126;11.594;2023-06-24T06:23:53;18.00;99.90
7445;DHT22;3764;48.126;11.594;2023-06-24T06:26:21;18.00;99.90
7445;DHT22;3764;48.126;11.594;2023-06-24T06:28:48;18.00;99.90
7445;DHT22;3764;48.126;11.594;2023-06-24T06:31:15;18.00;99.90
7445;DHT22;3764;48.126;11.594;2023-06-24T06:33:43;18.00;99.90
7445;DHT22;3764;48.126;11.594;2023-06-24T06:36:10;18.10;99.90
7445;DHT22;3764;48.126;11.594;2023-06-24T06:38:37;18.10;99.90
7445;DHT22;3764;48.126;11.594;2023-06-24T06:41:05;18.10;99.90
7445;DHT22;3764;48.126;11.594;2023-06-24T06:43:33;18.10;99.90
7445;DHT22;3764;48.126;11.594;2023-06-24T06:46:00;18.10;99.90
7445;DHT22;3764;48.126;11.594;2023-06-24T06:48:27;18.20;99.90
7445;DHT22;3764;48.126;11.594;2023-06-24T06:50:54;18.10;99.90
7445;DHT22;3764;48.126;11.594;2023-06-24T06:53:21;18.10;99.90
7445;DHT22;3764;48.126;11.594;2023-06-24T06:55:48;18.20;99.90
7445;DHT22;3764;48.126;11.594;2023-06-24T06:58:17;18.20;99.90
7445;DHT22;3764;48.126;11.594;2023-06-24T07:00:44;18.20;99.90
7445;DHT22;3764;48.126;11.594;2023-06-24T07:03:12;18.20;99.90
7445;DHT22;3764;48.126;11.594;2023-06-24T07:05:39;18.30;99.90
7445;DHT22;3764;48.126;11.594;2023-06-24T07:08:06;18.30;99.90
7445;DHT22;3764;48.126;11.594;2023-06-24T07:10:33;18.30;99.90
7445;DHT22;3764;48.126;11.594;2023-06-24T07:13:01;18.30;99.90
7445;DHT22;3764;48.126;11.594;2023-06-24T07:15:29;18.30;99.90
7445;DHT22;3764;48.126;11.594;2023-06-24T07:17:56;18.40;99.90
7445;DHT22;3764;48.126;11.594;2023-06-24T07:20:24;18.40;99.90
7445;DHT22;3764;48.126;11.594;2023-06-24T07:22:51;18.40;99.90
7445;DHT22;3764;48.126;11.594;2023-06-24T07:25:18;18.50;99.90
7445;DHT22;3764;48.126;11.594;2023-06-24T07:27:45;18.50;99.90
7445;DHT22;3764;48.126;11.594;2023-06-24T07:30:12;18.60;99.90
7445;DHT22;3764;48.126;11.594;2023-06-24T07:32:40;18.60;99.90
7445;DHT22;3764;48.126;11.594;2023-06-24T07:35:08;18.60;99.90
7445;DHT22;3764;48.126;11.594;2023-06-24T07:37:36;18.70;99.90
7445;DHT22;3764;48.126;11.594;2023-06-24T07:40:06;18.70;99.90
7445;DHT22;3764;48.126;11.594;2023-06-24T07:42:34;18.70;99.90
7445;DHT22;3764;48.126;11.594;2023-06-24T07:45:02;18.70;99.90
7445;DHT22;3764;48.126;11.594;2023-06-24T07:47:29;18.70;99.90
7445;DHT22;3764;48.126;11.594;2023-06-24T07:49:59;18.80;99.90
7445;DHT22;3764;48.126;11.594;2023-06-24T07:52:26;18.80;99.90
7445;DHT22;3764;48.126;11.594;2023-06-24T07:54:53;18.80;99.90
7445;DHT22;3764;48.126;11.594;2023-06-24T07:57:20;18.80;99.90
7445;DHT22;3764;48.126;11.594;2023-06-24T07:59:47;18.80;99.90
7445;DHT22;3764;48.126;11.594;2023-06-24T08:02:14;18.80;99.90
7445;DHT22;3764;48.126;11.594;2023-06-24T08:04:42;18.80;99.90
7445;DHT22;3764;48.126;11.594;2023-06-24T08:07:10;18.90;99.90
7445;DHT22;3764;48.126;11.594;2023-06-24T08:09:37;18.90;99.90
7445;DHT22;3764;48.126;11.594;2023-06-24T08:12:05;18.90;99.90
7445;DHT22;3764;48.126;11.594;2023-06-24T08:14:32;19.00;99.90
7445;DHT22;3764;48.126;11.594;2023-06-24T08:16:59;19.00;99.90
7445;DHT22;3764;48.126;11.594;2023-06-24T08:19:26;19.00;99.90
7445;DHT22;3764;48.126;11.594;2023-06-24T08:21:53;19.00;99.90
7445;DHT22;3764;48.126;11.594;2023-06-24T08:24:21;19.00;99.90
7445;DHT22;3764;48.126;11.594;2023-06-24T08:26:48;19.10;99.90
7445;DHT22;3764;48.126;11.594;2023-06-24T08:29:15;19.10;99.90
7445;DHT22;3764;48.126;11.594;2023-06-24T08:31:43;19.10;99.90
7445;DHT22;3764;48.126;11.594;2023-06-24T08:34:10;19.20;99.90
7445;DHT22;3764;48.126;11.594;2023-06-24T08:36:37;19.20;99.90
7445;DHT22;3764;48.126;11.594;2023-06-24T08:39:04;19.20;99.90
7445;DHT22;3764;48.126;11.594;2023-06-24T08:41:32;19.30;99.90
7445;DHT22;3764;48.126;11.594;2023-06-24T08:43:59;19.30;99.90
7445;DHT22;3764;48.126;11.594;2023-06-24T08:46:27;19.30;99.90
7445;DHT22;3764;48.126;11.594;2023-06-24T08:49:02;19.30;99.90
7445;DHT22;3764;48.126;11.594;2023-06-24T08:51:31;19.40;99.90
7445;DHT22;3764;48.126;11.594;2023-06-24T08:54:01;19.40;99.90
7445;DHT22;3764;48.126;11.594;2023-06-24T08:56:28;19.50;99.90
7445;DHT22;3764;48.126;11.594;2023-06-24T08:58:56;19.50;99.90
7445;DHT22;3764;48.126;11.594;2023-06-24T09:01:24;19.50;99.90
7445;DHT22;3764;48.126;11.594;2023-06-24T09:03:52;19.50;99.90
7445;DHT22;3764;48.126;11.594;2023-06-24T09:06:19;19.60;99.90
7445;DHT22;3764;48.126;11.594;2023-06-24T09:08:53;19.60;99.90
7445;DHT22;3764;48.126;11.594;2023-06-24T09:11:22;19.60;99.90
7445;DHT22;3764;48.126;11.594;2023-06-24T09:13:56;19.60;99.90
7445;DHT22;3764;48.126;11.594;2023-06-24T09:16:23;19.60;99.90
7445;DHT22;3764;48.126;11.594;2023-06-24T09:18:51;19.60;99.90
7445;DHT22;3764;48.126;11.594;2023-06-24T09:21:22;19.60;99.90
7445;DHT22;3764;48.126;11.594;2023-06-24T09:23:54;19.60;99.90
7445;DHT22;3764;48.126;11.594;2023-06-24T09:26:23;19.60;99.90
7445;DHT22;3764;48.126;11.594;2023-06-24T09:28:51;19.60;99.90
7445;DHT22;3764;48.126;11.594;2023-06-24T09:31:19;19.70;99.90
7445;DHT22;3764;48.126;11.594;2023-06-24T09:33:48;19.70;99.90
7445;DHT22;3764;48.126;11.594;2023-06-24T09:36:16;19.80;99.90
7445;DHT22;3764;48.126;11.594;2023-06-24T09:38:43;19.80;99.90
7445;DHT22;3764;48.126;11.594;2023-06-24T09:41:11;19.90;99.90
7445;DHT22;3764;48.126;11.594;2023-06-24T09:43:39;20.00;99.90
7445;DHT22;3764;48.126;11.594;2023-06-24T09:46:07;20.00;99.90
7445;DHT22;3764;48.126;11.594;2023-06-24T09:48:36;20.10;99.90
7445;DHT22;3764;48.126;11.594;2023-06-24T09:51:04;20.20;99.90
7445;DHT22;3764;48.126;11.594;2023-06-24T09:53:32;20.20;99.90
7445;DHT22;3764;48.126;11.594;2023-06-24T09:56:01;20.30;99.90
7445;DHT22;3764;48.126;11.594;2023-06-24T09:58:31;20.30;99.90
7445;DHT22;3764;48.126;11.594;2023-06-24T10:01:02;20.40;99.90
7445;DHT22;3764;48.126;11.594;2023-06-24T10:03:30;20.40;99.90
7445;DHT22;3764;48.126;11.594;2023-06-24T10:06:00;20.50;99.90
7445;DHT22;3764;48.126;11.594;2023-06-24T10:08:29;20.40;99.90
7445;DHT22;3764;48.126;11.594;2023-06-24T10:10:56;20.50;99.90
7445;DHT22;3764;48.126;11.594;2023-06-24T10:13:24;20.50;99.90
7445;DHT22;3764;48.126;11.594;2023-06-24T10:15:54;20.50;99.90
7445;DHT22;3764;48.126;11.594;2023-06-24T10:18:35;20.60;99.90
7445;DHT22;3764;48.126;11.594;2023-06-24T10:21:04;20.60;99.90
7445;DHT22;3764;48.126;11.594;2023-06-24T10:23:33;20.60;99.90
7445;DHT22;3764;48.126;11.594;2023-06-24T10:26:08;20.60;99.90
7445;DHT22;3764;48.126;11.594;2023-06-24T10:32:02;20.60;99.90
7445;DHT22;3764;48.126;11.594;2023-06-24T10:34:38;20.60;99.90
7445;DHT22;3764;48.126;11.594;2023-06-24T10:37:09;20.60;99.90
7445;DHT22;3764;48.126;11.594;2023-06-24T10:39:44;20.50;99.90
7445;DHT22;3764;48.126;11.594;2023-06-24T10:42:37;20.50;99.90
7445;DHT22;3764;48.126;11.594;2023-06-24T10:45:19;20.50;99.90
7445;DHT22;3764;48.126;11.594;2023-06-24T10:47:47;20.50;99.90
7445;DHT22;3764;48.126;11.594;2023-06-24T10:50:16;20.60;99.90
7445;DHT22;3764;48.126;11.594;2023-06-24T10:52:45;20.60;99.90
7445;DHT22;3764;48.126;11.594;2023-06-24T10:55:14;20.70;99.90
7445;DHT22;3764;48.126;11.594;2023-06-24T10:57:41;20.70;99.90
7445;DHT22;3764;48.126;11.594;2023-06-24T11:00:10;20.80;99.90
7445;DHT22;3764;48.126;11.594;2023-06-24T11:02:37;20.90;99.90
7445;DHT22;3764;48.126;11.594;2023-06-24T11:05:05;20.90;99.90
7445;DHT22;3764;48.126;11.594;2023-06-24T11:07:34;21.00;99.90
7445;DHT22;3764;48.126;11.594;2023-06-24T11:10:05;21.00;99.90
7445;DHT22;3764;48.126;11.594;2023-06-24T11:12:33;21.00;99.90
7445;DHT22;3764;48.126;11.594;2023-06-24T11:15:02;21.00;99.90
7445;DHT22;3764;48.126;11.594;2023-06-24T11:17:29;21.00;99.90
7445;DHT22;3764;48.126;11.594;2023-06-24T11:19:57;21.00;99.90
7445;DHT22;3764;48.126;11.594;2023-06-24T11:22:25;21.00;99.90
7445;DHT22;3764;48.126;11.594;2023-06-24T11:24:53;21.10;99.90
7445;DHT22;3764;48.126;11.594;2023-06-24T11:27:26;21.10;99.90
7445;DHT22;3764;48.126;11.594;2023-06-24T11:29:53;21.20;99.90
7445;DHT22;3764;48.126;11.594;2023-06-24T11:32:20;21.30;99.90
7445;DHT22;3764;48.126;11.594;2023-06-24T11:34:48;21.30;99.90
7445;DHT22;3764;48.126;11.594;2023-06-24T11:37:17;21.20;99.90
7445;DHT22;3764;48.126;11.594;2023-06-24T11:39:45;21.20;99.90
7445;DHT22;3764;48.126;11.594;2023-06-24T11:42:28;21.20;99.90
7445;DHT22;3764;48.126;11.594;2023-06-24T11:44:59;21.30;99.90
7445;DHT22;3764;48.126;11.594;2023-06-24T11:47:27;21.20;99.90
7445;DHT22;3764;48.126;11.594;2023-06-24T11:49:57;21.20;99.90
7445;DHT22;3764;48.126;11.594;2023-06-24T11:52:42;21.20;99.90
7445;DHT22;3764;48.126;11.594;2023-06-24T11:55:16;21.10;99.90
7445;DHT22;3764;48.126;11.594;2023-06-24T11:57:53;21.10;99.90
7445;DHT22;3764;48.126;11.594;2023-06-24T12:00:21;21.20;99.90
7445;DHT22;3764;48.126;11.594;2023-06-24T12:02:50;21.20;99.90
7445;DHT22;3764;48.126;11.594;2023-06-24T12:05:23;21.30;99.90
7445;DHT22;3764;48.126;11.594;2023-06-24T12:07:54;21.40;99.90
7445;DHT22;3764;48.126;11.594;2023-06-24T12:10:22;21.50;99.90
7445;DHT22;3764;48.126;11.594;2023-06-24T12:12:51;21.60;99.90
7445;DHT22;3764;48.126;11.594;2023-06-24T12:15:19;21.60;99.90
7445;DHT22;3764;48.126;11.594;2023-06-24T12:17:46;21.60;99.90
7445;DHT22;3764;48.126;11.594;2023-06-24T12:20:14;21.60;99.90
7445;DHT22;3764;48.126;11.594;2023-06-24T12:22:41;21.60;99.90
7445;DHT22;3764;48.126;11.594;2023-06-24T12:25:09;21.60;99.90
7445;DHT22;3764;48.126;11.594;2023-06-24T12:27:37;21.60;99.90
7445;DHT22;3764;48.126;11.594;2023-06-24T12:30:08;21.60;99.90
7445;DHT22;3764;48.126;11.594;2023-06-24T12:32:36;21.70;99.90
7445;DHT22;3764;48.126;11.594;2023-06-24T12:35:04;21.80;99.90
7445;DHT22;3764;48.126;11.594;2023-06-24T12:37:32;21.90;99.90
7445;DHT22;3764;48.126;11.594;2023-06-24T12:39:59;22.10;99.90
7445;DHT22;3764;48.126;11.594;2023-06-24T12:42:26;22.20;99.90
7445;DHT22;3764;48.126;11.594;2023-06-24T12:44:54;22.40;99.90
7445;DHT22;3764;48.126;11.594;2023-06-24T12:47:22;22.50;99.90
7445;DHT22;3764;48.126;11.594;2023-06-24T12:49:49;22.60;99.90
7445;DHT22;3764;48.126;11.594;2023-06-24T12:52:18;22.60;99.90
7445;DHT22;3764;48.126;11.594;2023-06-24T12:54:49;22.60;99.90
7445;DHT22;3764;48.126;11.594;2023-06-24T12:57:16;22.70;99.90
7445;DHT22;3764;48.126;11.594;2023-06-24T12:59:43;22.80;99.90
7445;DHT22;3764;48.126;11.594;2023-06-24T13:02:10;22.80;99.80
7445;DHT22;3764;48.126;11.594;2023-06-24T13:04:39;22.80;99.20
7445;DHT22;3764;48.126;11.594;2023-06-24T13:07:06;22.80;98.90
7445;DHT22;3764;48.126;11.594;2023-06-24T13:09:35;22.90;98.90
7445;DHT22;3764;48.126;11.594;2023-06-24T13:12:02;22.80;99.60
7445;DHT22;3764;48.126;11.594;2023-06-24T13:14:29;22.80;99.90
7445;DHT22;3764;48.126;11.594;2023-06-24T13:16:56;22.80;99.90
7445;DHT22;3764;48.126;11.594;2023-06-24T13:19:24;22.90;98.90
7445;DHT22;3764;48.126;11.594;2023-06-24T13:21:52;22.90;98.80
7445;DHT22;3764;48.126;11.594;2023-06-24T13:24:19;22.90;98.80
7445;DHT22;3764;48.126;11.594;2023-06-24T13:26:46;22.90;98.70
7445;DHT22;3764;48.126;11.594;2023-06-24T13:29:13;22.90;98.50
7445;DHT22;3764;48.126;11.594;2023-06-24T13:31:40;23.00;98.50
7445;DHT22;3764;48.126;11.594;2023-06-24T13:34:08;23.00;98.40
7445;DHT22;3764;48.126;11.594;2023-06-24T13:36:36;23.00;98.20
7445;DHT22;3764;48.126;11.594;2023-06-24T13:39:06;23.00;97.60
7445;DHT22;3764;48.126;11.594;2023-06-24T13:41:33;23.00;97.30
7445;DHT22;3764;48.126;11.594;2023-06-24T13:44:01;23.00;97.70
7445;DHT22;3764;48.126;11.594;2023-06-24T13:46:28;22.90;98.70
7445;DHT22;3764;48.126;11.594;2023-06-24T13:48:56;22.90;99.00
7445;DHT22;3764;48.126;11.594;2023-06-24T13:51:24;22.90;99.40
7445;DHT22;3764;48.126;11.594;2023-06-24T13:53:52;23.00;99.50
7445;DHT22;3764;48.126;11.594;2023-06-24T13:56:22;23.00;99.90
7445;DHT22;3764;48.126;11.594;2023-06-24T13:58:50;23.00;99.00
7445;DHT22;3764;48.126;11.594;2023-06-24T14:01:17;23.10;99.10
7445;DHT22;3764;48.126;11.594;2023-06-24T14:03:45;23.10;98.30
7445;DHT22;3764;48.126;11.594;2023-06-24T14:06:13;23.20;98.10
7445;DHT22;3764;48.126;11.594;2023-06-24T14:08:41;23.20;98.70
7445;DHT22;3764;48.126;11.594;2023-06-24T14:11:08;23.20;98.50
7445;DHT22;3764;48.126;11.594;2023-06-24T14:13:36;23.20;98.60
7445;DHT22;3764;48.126;11.594;2023-06-24T14:16:04;23.10;98.00
7445;DHT22;3764;48.126;11.594;2023-06-24T14:18:32;23.20;97.40
7445;DHT22;3764;48.126;11.594;2023-06-24T14:21:00;23.20;97.20
7445;DHT22;3764;48.126;11.594;2023-06-24T14:23:30;23.20;97.40
7445;DHT22;3764;48.126;11.594;2023-06-24T14:25:58;23.30;98.10
7445;DHT22;3764;48.126;11.594;2023-06-24T14:28:25;23.30;98.50
7445;DHT22;3764;48.126;11.594;2023-06-24T14:30:54;23.40;98.40
7445;DHT22;3764;48.126;11.594;2023-06-24T14:33:21;23.40;98.30
7445;DHT22;3764;48.126;11.594;2023-06-24T14:35:49;23.50;99.40
7445;DHT22;3764;48.126;11.594;2023-06-24T14:38:17;23.50;98.20
7445;DHT22;3764;48.126;11.594;2023-06-24T14:40:44;23.50;97.60
7445;DHT22;3764;48.126;11.594;2023-06-24T14:43:11;23.50;97.20
7445;DHT22;3764;48.126;11.594;2023-06-24T14:45:38;23.40;97.30
7445;DHT22;3764;48.126;11.594;2023-06-24T14:48:06;23.40;97.40
7445;DHT22;3764;48.126;11.594;2023-06-24T14:50:33;23.30;97.00
7445;DHT22;3764;48.126;11.594;2023-06-24T14:53:01;23.30;96.50
7445;DHT22;3764;48.126;11.594;2023-06-24T14:55:28;23.30;96.50
7445;DHT22;3764;48.126;11.594;2023-06-24T14:57:55;23.40;97.80
7445;DHT22;3764;48.126;11.594;2023-06-24T15:00:22;23.40;96.50
7445;DHT22;3764;48.126;11.594;2023-06-24T15:02:50;23.50;96.30
7445;DHT22;3764;48.126;11.594;2023-06-24T15:05:18;23.50;97.80
7445;DHT22;3764;48.126;11.594;2023-06-24T15:07:45;23.50;97.90
7445;DHT22;3764;48.126;11.594;2023-06-24T15:10:12;23.50;98.30
7445;DHT22;3764;48.126;11.594;2023-06-24T15:12:39;23.60;98.00
7445;DHT22;3764;48.126;11.594;2023-06-24T15:15:07;23.60;99.00
7445;DHT22;3764;48.126;11.594;2023-06-24T15:17:34;23.80;98.20
7445;DHT22;3764;48.126;11.594;2023-06-24T15:20:07;24.00;98.60
7445;DHT22;3764;48.126;11.594;2023-06-24T15:22:36;24.00;96.70
7445;DHT22;3764;48.126;11.594;2023-06-24T15:25:03;23.90;96.30
7445;DHT22;3764;48.126;11.594;2023-06-24T15:27:31;23.80;96.30
7445;DHT22;3764;48.126;11.594;2023-06-24T15:29:58;23.70;96.30
7445;DHT22;3764;48.126;11.594;2023-06-24T15:32:25;23.50;97.10
7445;DHT22;3764;48.126;11.594;2023-06-24T15:34:52;23.40;97.10
7445;DHT22;3764;48.126;11.594;2023-06-24T15:37:19;23.30;96.80
7445;DHT22;3764;48.126;11.594;2023-06-24T15:39:48;23.30;96.50
7445;DHT22;3764;48.126;11.594;2023-06-24T15:42:15;23.20;96.70
7445;DHT22;3764;48.126;11.594;2023-06-24T15:44:42;23.30;98.50
7445;DHT22;3764;48.126;11.594;2023-06-24T15:47:09;23.40;99.30
7445;DHT22;3764;48.126;11.594;2023-06-24T15:49:37;23.60;97.50
7445;DHT22;3764;48.126;11.594;2023-06-24T15:52:04;23.60;97.00
7445;DHT22;3764;48.126;11.594;2023-06-24T15:54:31;23.60;96.70
7445;DHT22;3764;48.126;11.594;2023-06-24T15:57:00;23.50;96.60